createdAt,value
2023-03-26T00:02:23.788Z,12.98
2023-03-26T00:04:53.370Z,13.00
2023-03-26T00:07:22.778Z,12.98
2023-03-26T00:09:50.787Z,12.92
2023-03-26T00:12:20.121Z,13.01
2023-03-26T00:14:52.849Z,13.07
2023-03-26T00:17:21.275Z,13.08
2023-03-26T00:19:50.302Z,13.08
2023-03-26T00:22:18.155Z,13.09
2023-03-26T00:24:49.313Z,13.09
2023-03-26T00:27:20.693Z,13.06
2023-03-26T00:29:49.566Z,12.98
2023-03-26T00:32:17.432Z,13.06
2023-03-26T00:34:46.251Z,13.09
2023-03-26T00:37:15.209Z,13.09
2023-03-26T00:39:49.342Z,13.08
2023-03-26T00:42:17.542Z,13.04
2023-03-26T00:44:45.650Z,13.00
2023-03-26T00:47:13.949Z,12.96
2023-03-26T00:49:42.772Z,12.95
2023-03-26T00:52:10.850Z,12.91
2023-03-26T00:54:38.938Z,12.87
2023-03-26T00:57:20.224Z,12.83
2023-03-26T00:59:55.607Z,12.80
2023-03-26T01:02:25.244Z,12.77
2023-03-26T01:04:57.149Z,12.74
2023-03-26T01:07:29.095Z,12.73
2023-03-26T01:09:58.652Z,12.69
2023-03-26T01:12:28.106Z,12.64
2023-03-26T01:14:57.221Z,12.62
2023-03-26T01:17:34.420Z,12.55
2023-03-26T01:20:15.129Z,12.49
2023-03-26T01:22:46.537Z,12.48
2023-03-26T01:25:14.535Z,12.43
2023-03-26T01:27:44.831Z,12.45
2023-03-26T01:30:25.217Z,12.42
2023-03-26T01:32:58.388Z,12.46
2023-03-26T01:35:38.550Z,12.49
2023-03-26T01:38:23.009Z,12.47
2023-03-26T01:40:55.405Z,12.49
2023-03-26T01:43:45.378Z,12.52
2023-03-26T01:46:14.180Z,12.53
2023-03-26T01:48:44.058Z,12.46
2023-03-26T01:51:12.983Z,12.33
2023-03-26T01:53:45.517Z,12.20
2023-03-26T01:56:19.907Z,12.14
2023-03-26T01:59:23.151Z,12.08
2023-03-26T02:01:55.001Z,12.03
2023-03-26T02:04:27.166Z,11.88
2023-03-26T02:07:10.699Z,11.78
2023-03-26T02:09:49.978Z,11.68
2023-03-26T02:12:18.052Z,11.54
2023-03-26T02:14:47.838Z,11.46
2023-03-26T02:17:16.811Z,11.30
2023-03-26T02:19:45.836Z,11.21
2023-03-26T02:22:16.375Z,11.09
2023-03-26T02:24:48.351Z,11.03
2023-03-26T02:27:18.486Z,11.00
2023-03-26T02:29:47.866Z,10.95
2023-03-26T02:32:19.396Z,10.97
2023-03-26T02:34:47.398Z,10.91
2023-03-26T02:37:19.144Z,10.87
2023-03-26T02:39:47.820Z,10.85
2023-03-26T02:42:31.893Z,10.78
2023-03-26T02:44:59.962Z,10.74
2023-03-26T02:47:33.986Z,10.74
2023-03-26T02:50:20.591Z,10.71
2023-03-26T02:53:09.230Z,10.68
2023-03-26T02:55:39.322Z,10.63
2023-03-26T02:58:07.980Z,10.59
2023-03-26T03:00:47.339Z,10.55
2023-03-26T03:03:37.892Z,10.57
2023-03-26T03:06:06.302Z,10.54
2023-03-26T03:08:48.396Z,10.49
2023-03-26T03:11:35.641Z,10.51
2023-03-26T03:14:03.941Z,10.52
2023-03-26T03:16:35.585Z,10.48
2023-03-26T03:19:07.210Z,10.50
2023-03-26T03:21:38.235Z,10.52
2023-03-26T03:24:07.355Z,10.48
2023-03-26T03:26:38.431Z,10.37
2023-03-26T03:29:27.132Z,10.29
2023-03-26T03:31:56.206Z,10.31
2023-03-26T03:34:38.709Z,10.31
2023-03-26T03:37:07.288Z,10.28
2023-03-26T03:39:45.941Z,10.26
2023-03-26T03:42:19.478Z,10.22
2023-03-26T03:44:47.796Z,10.21
2023-03-26T03:50:45.855Z,10.22
2023-03-26T03:53:40.738Z,10.19
2023-03-26T03:56:29.158Z,10.19
2023-03-26T03:59:17.699Z,10.20
2023-03-26T04:01:50.879Z,10.19
2023-03-26T04:04:26.690Z,10.20
2023-03-26T04:07:02.775Z,10.21
2023-03-26T04:09:36.476Z,10.19
2023-03-26T04:12:15.569Z,10.19
2023-03-26T04:14:50.955Z,10.11
2023-03-26T04:17:25.017Z,10.06
2023-03-26T04:19:57.144Z,10.10
2023-03-26T04:22:34.776Z,10.22
2023-03-26T04:25:10.868Z,10.23
2023-03-26T04:27:47.987Z,10.18
2023-03-26T04:30:35.080Z,10.21
2023-03-26T04:33:09.931Z,10.29
2023-03-26T04:35:41.823Z,10.43
2023-03-26T04:38:16.734Z,10.47
2023-03-26T04:40:47.744Z,10.47
2023-03-26T04:43:30.437Z,10.45
2023-03-26T04:46:27.993Z,10.43
2023-03-26T04:49:16.184Z,10.45
2023-03-26T04:51:46.747Z,10.45
2023-03-26T04:54:33.195Z,10.44
2023-03-26T04:57:09.394Z,10.47
2023-03-26T05:00:00.853Z,10.49
2023-03-26T05:02:37.772Z,10.46
2023-03-26T05:05:06.212Z,10.51
2023-03-26T05:07:36.309Z,10.56
2023-03-26T05:10:04.989Z,10.60
2023-03-26T05:12:39.452Z,10.59
2023-03-26T05:15:17.716Z,10.70
2023-03-26T05:17:52.062Z,10.79
2023-03-26T05:20:40.473Z,10.79
2023-03-26T05:23:14.064Z,10.71
2023-03-26T05:25:47.200Z,10.64
2023-03-26T05:28:24.418Z,10.61
2023-03-26T05:31:01.148Z,10.59
2023-03-26T05:33:30.733Z,10.49
2023-03-26T05:36:09.361Z,10.46
2023-03-26T05:38:37.856Z,10.61
2023-03-26T05:41:08.021Z,10.63
2023-03-26T05:43:39.730Z,10.52
2023-03-26T05:46:14.021Z,10.47
2023-03-26T05:48:44.194Z,10.52
2023-03-26T05:51:15.510Z,10.42
2023-03-26T05:53:57.077Z,10.41
2023-03-26T05:56:58.014Z,10.54
2023-03-26T05:59:45.242Z,10.53
2023-03-26T06:02:50.828Z,10.46
2023-03-26T06:06:00.672Z,10.40
2023-03-26T06:08:39.454Z,10.53
2023-03-26T06:11:08.293Z,10.51
2023-03-26T06:13:42.777Z,10.44
2023-03-26T06:16:21.061Z,10.65
2023-03-26T06:18:59.980Z,10.77
2023-03-26T06:21:51.219Z,10.73
2023-03-26T06:24:23.308Z,10.78
2023-03-26T06:27:04.425Z,10.76
2023-03-26T06:30:04.141Z,10.73
2023-03-26T06:32:51.610Z,10.96
2023-03-26T06:35:24.808Z,11.01
2023-03-26T06:37:53.461Z,10.90
2023-03-26T06:40:21.961Z,11.00
2023-03-26T06:43:10.960Z,11.00
2023-03-26T06:45:57.701Z,11.04
2023-03-26T06:48:39.273Z,11.20
2023-03-26T06:51:30.245Z,11.11
2023-03-26T06:54:17.461Z,11.20
2023-03-26T06:56:51.684Z,11.33
2023-03-26T06:59:28.147Z,11.43
2023-03-26T07:02:14.808Z,11.72
2023-03-26T07:05:18.185Z,12.18
2023-03-26T07:08:05.904Z,12.29
2023-03-26T07:10:59.870Z,12.32
2023-03-26T07:13:59.619Z,12.61
2023-03-26T07:17:06.316Z,12.86
2023-03-26T07:19:47.711Z,12.87
2023-03-26T07:22:23.351Z,12.82
2023-03-26T07:25:10.907Z,12.86
2023-03-26T07:28:02.997Z,12.88
2023-03-26T07:31:24.922Z,12.78
2023-03-26T07:34:29.277Z,12.62
2023-03-26T07:37:35.973Z,12.75
2023-03-26T07:41:01.707Z,12.65
2023-03-26T07:44:02.381Z,12.46
2023-03-26T07:46:48.122Z,12.47
2023-03-26T07:49:35.497Z,12.27
2023-03-26T07:52:20.969Z,12.15
2023-03-26T07:55:08.603Z,12.38
2023-03-26T07:58:11.779Z,12.50
2023-03-26T08:01:40.501Z,12.48
2023-03-26T08:04:42.074Z,12.60
2023-03-26T08:07:39.679Z,12.66
2023-03-26T08:10:26.213Z,12.54
2023-03-26T08:13:14.414Z,12.78
2023-03-26T08:16:05.845Z,13.19
2023-03-26T08:18:44.826Z,13.13
2023-03-26T08:21:39.712Z,13.14
2023-03-26T08:24:20.242Z,13.39
2023-03-26T08:27:08.825Z,13.65
2023-03-26T08:29:41.476Z,13.69
2023-03-26T08:32:10.869Z,13.77
2023-03-26T08:34:39.026Z,13.85
2023-03-26T08:37:07.831Z,13.77
2023-03-26T08:39:38.911Z,13.85
2023-03-26T08:42:26.930Z,13.64
2023-03-26T08:45:16.755Z,13.52
2023-03-26T08:48:11.012Z,13.70
2023-03-26T08:51:10.876Z,14.02
2023-03-26T08:54:20.792Z,14.08
2023-03-26T08:57:37.319Z,14.12
2023-03-26T09:00:17.125Z,14.06
2023-03-26T09:03:17.486Z,14.04
2023-03-26T09:05:51.903Z,14.08
2023-03-26T09:08:22.844Z,14.02
2023-03-26T09:11:04.526Z,14.03
2023-03-26T09:13:44.689Z,13.94
2023-03-26T09:16:44.182Z,13.86
2023-03-26T09:19:31.048Z,14.21
2023-03-26T09:22:23.799Z,14.28
2023-03-26T09:25:02.570Z,14.22
2023-03-26T09:27:47.332Z,14.26
2023-03-26T09:30:44.672Z,14.15
2023-03-26T09:33:26.198Z,14.15
2023-03-26T09:36:03.617Z,14.09
2023-03-26T09:38:54.049Z,13.82
2023-03-26T09:41:40.723Z,13.73
2023-03-26T09:44:20.859Z,13.81
2023-03-26T09:47:07.030Z,13.92
2023-03-26T09:49:48.610Z,13.71
2023-03-26T09:52:20.610Z,13.51
2023-03-26T09:54:57.652Z,13.68
2023-03-26T09:57:49.435Z,13.67
2023-03-26T10:00:23.299Z,13.49
2023-03-26T10:03:33.650Z,13.48
2023-03-26T10:06:48.763Z,13.62
2023-03-26T10:09:40.943Z,13.48
2023-03-26T10:12:42.318Z,13.50
2023-03-26T10:15:32.842Z,13.74
2023-03-26T10:18:27.784Z,13.65
2023-03-26T10:21:25.328Z,13.48
2023-03-26T10:24:15.270Z,13.54
2023-03-26T10:27:10.782Z,13.43
2023-03-26T10:30:07.823Z,13.15
2023-03-26T10:32:52.319Z,13.20
2023-03-26T10:35:31.495Z,13.21
2023-03-26T10:38:31.095Z,13.07
2023-03-26T10:41:17.086Z,13.18
2023-03-26T10:43:54.839Z,13.40
2023-03-26T10:46:36.058Z,13.40
2023-03-26T10:51:01.457Z,13.27
2023-03-26T10:53:56.306Z,13.56
2023-03-26T10:56:29.219Z,13.75
2023-03-26T10:58:56.269Z,13.82
2023-03-26T11:01:30.935Z,13.89
2023-03-26T11:04:01.068Z,13.86
2023-03-26T11:06:43.795Z,13.99
2023-03-26T11:09:11.753Z,14.19
2023-03-26T11:11:44.868Z,14.11
2023-03-26T11:14:35.403Z,14.09
2023-03-26T11:17:40.963Z,14.14
2023-03-26T11:20:16.619Z,14.22
2023-03-26T11:22:55.336Z,14.27
2023-03-26T11:25:33.872Z,14.56
2023-03-26T11:28:13.989Z,14.56
2023-03-26T11:30:46.815Z,14.39
2023-03-26T11:33:22.856Z,14.16
2023-03-26T11:35:50.847Z,14.22
2023-03-26T11:38:44.374Z,14.27
2023-03-26T11:41:25.531Z,14.23
2023-03-26T11:44:13.134Z,14.54
2023-03-26T11:46:43.267Z,14.65
2023-03-26T11:49:12.091Z,14.59
2023-03-26T11:51:39.580Z,14.67
2023-03-26T11:54:07.289Z,14.76
2023-03-26T11:56:42.028Z,14.87
2023-03-26T12:00:03.652Z,14.85
2023-03-26T12:02:56.989Z,14.90
2023-03-26T12:05:30.811Z,14.98
2023-03-26T12:07:59.193Z,15.06
2023-03-26T12:10:32.599Z,15.06
2023-03-26T12:13:24.538Z,15.23
2023-03-26T12:15:51.140Z,15.37
2023-03-26T12:18:25.393Z,15.41
2023-03-26T12:21:04.913Z,15.23
2023-03-26T12:24:04.649Z,15.10
2023-03-26T12:26:44.228Z,15.02
2023-03-26T12:29:12.644Z,14.98
2023-03-26T12:31:54.257Z,14.84
2023-03-26T12:34:22.665Z,14.72
2023-03-26T12:36:54.758Z,14.64
2023-03-26T12:40:06.516Z,14.54
2023-03-26T12:42:52.740Z,14.48
2023-03-26T12:45:12.453Z,14.50
2023-03-26T12:48:01.145Z,14.61
2023-03-26T12:50:36.344Z,14.70
2023-03-26T12:53:31.405Z,14.82
2023-03-26T12:56:04.004Z,14.98
2023-03-26T12:58:40.468Z,15.33
2023-03-26T13:01:47.048Z,15.84
2023-03-26T13:04:45.110Z,16.29
2023-03-26T13:07:54.057Z,16.30
2023-03-26T13:10:42.492Z,16.21
2023-03-26T13:13:45.923Z,16.10
2023-03-26T13:16:18.525Z,16.14
2023-03-26T13:18:55.399Z,16.01
2023-03-26T13:21:40.927Z,15.70
2023-03-26T13:24:07.711Z,15.56
2023-03-26T13:26:56.868Z,15.40
2023-03-26T13:29:46.123Z,15.42
2023-03-26T13:32:44.190Z,15.68
2023-03-26T13:35:26.155Z,15.77
2023-03-26T13:38:34.507Z,15.78
2023-03-26T13:41:06.295Z,15.77
2023-03-26T13:43:55.165Z,15.69
2023-03-26T13:46:42.507Z,15.43
2023-03-26T13:49:26.874Z,15.14
2023-03-26T13:52:05.536Z,14.88
2023-03-26T13:54:49.635Z,14.78
2023-03-26T13:57:28.859Z,14.75
2023-03-26T14:00:12.045Z,14.68
2023-03-26T14:02:43.579Z,14.55
2023-03-26T14:05:22.189Z,14.48
2023-03-26T14:07:51.839Z,14.52
2023-03-26T14:10:20.912Z,14.49
2023-03-26T14:12:55.218Z,14.40
2023-03-26T14:15:26.747Z,14.25
2023-03-26T14:18:31.069Z,14.12
2023-03-26T14:21:25.924Z,13.98
2023-03-26T14:24:18.801Z,13.86
2023-03-26T14:27:02.820Z,13.82
2023-03-26T14:29:57.819Z,13.81
2023-03-26T14:32:44.217Z,13.61
2023-03-26T14:35:10.781Z,13.26
2023-03-26T14:37:54.810Z,13.01
2023-03-26T14:41:00.142Z,12.72
2023-03-26T14:43:49.179Z,12.50
2023-03-26T14:46:19.858Z,12.31
2023-03-26T14:49:08.275Z,12.27
2023-03-26T14:51:45.967Z,12.51
2023-03-26T14:54:34.790Z,12.53
2023-03-26T14:57:23.494Z,12.45
2023-03-26T15:00:14.936Z,12.48
2023-03-26T15:03:07.414Z,12.95
2023-03-26T15:06:11.802Z,13.30
2023-03-26T15:09:16.933Z,13.31
2023-03-26T15:12:16.264Z,13.51
2023-03-26T15:15:00.524Z,13.93
2023-03-26T15:17:33.811Z,13.84
2023-03-26T15:20:32.865Z,13.82
2023-03-26T15:23:08.868Z,13.87
2023-03-26T15:25:48.659Z,13.70
2023-03-26T15:28:54.325Z,13.58
2023-03-26T15:31:42.164Z,13.52
2023-03-26T15:34:27.566Z,13.43
2023-03-26T15:37:10.072Z,13.61
2023-03-26T15:39:59.475Z,13.78
2023-03-26T15:42:44.915Z,13.70
2023-03-26T15:45:44.597Z,13.66
2023-03-26T15:48:12.124Z,13.35
2023-03-26T15:50:42.918Z,13.04
2023-03-26T15:53:54.242Z,12.85
2023-03-26T15:56:33.663Z,12.74
2023-03-26T15:59:31.022Z,12.72
2023-03-26T16:02:25.887Z,12.49
2023-03-26T16:04:56.953Z,12.32
2023-03-26T16:07:28.325Z,12.37
2023-03-26T16:10:21.277Z,12.42
2023-03-26T16:13:13.064Z,12.23
2023-03-26T16:15:58.203Z,12.07
2023-03-26T16:18:30.818Z,12.05
2023-03-26T16:21:31.466Z,12.13
2023-03-26T16:24:02.488Z,11.99
2023-03-26T16:26:48.033Z,11.89
2023-03-26T16:29:25.015Z,11.88
2023-03-26T16:32:06.839Z,12.01
2023-03-26T16:34:52.227Z,11.90
2023-03-26T16:37:39.144Z,11.78
2023-03-26T16:40:21.844Z,11.90
2023-03-26T16:43:26.061Z,11.95
2023-03-26T16:46:05.131Z,11.82
2023-03-26T16:48:36.385Z,11.77
2023-03-26T16:51:30.823Z,11.91
2023-03-26T16:54:23.164Z,11.99
2023-03-26T16:56:53.060Z,11.95
2023-03-26T16:59:45.759Z,11.88
2023-03-26T17:02:40.855Z,11.86
2023-03-26T17:05:21.143Z,11.79
2023-03-26T17:08:00.757Z,11.89
2023-03-26T17:10:37.146Z,11.76
2023-03-26T17:13:25.286Z,11.53
2023-03-26T17:16:15.585Z,11.45
2023-03-26T17:18:50.391Z,11.58
2023-03-26T17:22:02.025Z,11.58
2023-03-26T17:24:40.046Z,11.42
2023-03-26T17:27:49.487Z,11.32
2023-03-26T17:30:51.071Z,11.34
2023-03-26T17:33:26.235Z,11.39
2023-03-26T17:36:11.452Z,11.23
2023-03-26T17:38:40.645Z,11.11
2023-03-26T17:41:17.860Z,11.01
2023-03-26T17:43:44.890Z,11.09
2023-03-26T17:46:31.193Z,11.16
2023-03-26T17:48:59.372Z,11.01
2023-03-26T17:51:39.756Z,10.92
2023-03-26T17:54:17.696Z,10.96
2023-03-26T17:56:44.455Z,11.13
2023-03-26T17:59:17.825Z,11.02
2023-03-26T18:01:47.646Z,10.88
2023-03-26T18:04:19.016Z,10.81
2023-03-26T18:07:01.060Z,10.90
2023-03-26T18:09:41.489Z,10.87
2023-03-26T18:12:27.128Z,10.69
2023-03-26T18:15:13.582Z,10.57
2023-03-26T18:17:45.529Z,10.51
2023-03-26T18:20:41.901Z,10.66
2023-03-26T18:23:10.431Z,10.52
2023-03-26T18:25:37.692Z,10.39
2023-03-26T18:28:04.357Z,10.41
2023-03-26T18:30:30.997Z,10.58
2023-03-26T18:33:02.999Z,10.45
2023-03-26T18:35:44.412Z,10.25
2023-03-26T18:38:18.782Z,10.32
2023-03-26T18:41:02.993Z,10.35
2023-03-26T18:43:34.788Z,10.15
2023-03-26T18:46:03.026Z,10.08
2023-03-26T18:48:30.176Z,10.21
2023-03-26T18:51:05.238Z,10.10
2023-03-26T18:53:39.153Z,9.92
2023-03-26T18:56:30.167Z,10.05
2023-03-26T18:58:59.399Z,9.95
2023-03-26T19:01:30.764Z,9.76
2023-03-26T19:04:04.327Z,9.85
2023-03-26T19:06:35.254Z,9.83
2023-03-26T19:09:07.769Z,9.64
2023-03-26T19:11:38.090Z,9.73
2023-03-26T19:14:07.344Z,9.80
2023-03-26T19:16:35.999Z,9.62
2023-03-26T19:19:05.750Z,9.55
2023-03-26T19:21:33.495Z,9.67
2023-03-26T19:24:06.391Z,9.57
2023-03-26T19:26:33.674Z,9.45
2023-03-26T19:29:00.443Z,9.56
2023-03-26T19:31:38.327Z,9.55
2023-03-26T19:34:19.323Z,9.38
2023-03-26T19:36:51.861Z,9.41
2023-03-26T19:39:34.649Z,9.52
2023-03-26T19:42:04.647Z,9.37
2023-03-26T19:44:32.084Z,9.24
2023-03-26T19:47:04.724Z,9.42
2023-03-26T19:49:41.642Z,9.39
2023-03-26T19:52:24.667Z,9.19
2023-03-26T19:55:18.459Z,9.32
2023-03-26T19:57:45.032Z,9.37
2023-03-26T20:00:13.496Z,9.19
2023-03-26T20:02:45.899Z,9.22
2023-03-26T20:05:17.928Z,9.29
2023-03-26T20:07:49.700Z,9.09
2023-03-26T20:10:16.453Z,9.08
2023-03-26T20:12:43.038Z,9.17
2023-03-26T20:15:19.585Z,9.02
2023-03-26T20:18:04.783Z,8.91
2023-03-26T20:20:33.581Z,9.02
2023-03-26T20:23:00.947Z,9.02
2023-03-26T20:25:36.846Z,8.87
2023-03-26T20:28:05.261Z,8.92
2023-03-26T20:30:37.892Z,9.05
2023-03-26T20:33:13.802Z,8.96
2023-03-26T20:35:42.497Z,8.82
2023-03-26T20:38:09.985Z,8.88
2023-03-26T20:40:37.733Z,8.88
2023-03-26T20:43:09.261Z,8.75
2023-03-26T20:45:36.523Z,8.84
2023-03-26T20:48:04.880Z,8.93
2023-03-26T20:50:35.706Z,8.85
2023-03-26T20:53:02.657Z,8.77
2023-03-26T20:55:29.365Z,8.92
2023-03-26T20:57:55.875Z,8.87
2023-03-26T21:00:25.482Z,8.67
2023-03-26T21:02:53.938Z,8.64
2023-03-26T21:05:26.119Z,8.73
2023-03-26T21:07:56.627Z,8.55
2023-03-26T21:10:28.944Z,8.45
2023-03-26T21:12:57.486Z,8.58
2023-03-26T21:15:28.996Z,8.56
2023-03-26T21:17:56.191Z,8.43
2023-03-26T21:20:24.679Z,8.52
2023-03-26T21:23:31.470Z,8.67
2023-03-26T21:26:07.233Z,8.57
2023-03-26T21:28:42.381Z,8.49
2023-03-26T21:31:23.932Z,8.65
2023-03-26T21:33:51.746Z,8.70
2023-03-26T21:36:19.152Z,8.55
2023-03-26T21:38:46.643Z,8.56
2023-03-26T21:41:24.665Z,8.64
2023-03-26T21:43:51.731Z,8.68
2023-03-26T21:46:18.628Z,8.71
2023-03-26T21:48:47.335Z,8.73
2023-03-26T21:51:14.658Z,8.74
2023-03-26T21:53:42.186Z,8.70
2023-03-26T21:56:21.180Z,8.69
2023-03-26T21:58:55.370Z,8.51
2023-03-26T22:01:46.218Z,8.52
2023-03-26T22:04:53.610Z,8.62
2023-03-26T22:07:35.081Z,8.61
2023-03-26T22:10:01.620Z,8.46
2023-03-26T22:12:28.524Z,8.39
2023-03-26T22:14:55.303Z,8.51
2023-03-26T22:17:22.463Z,8.49
2023-03-26T22:19:49.516Z,8.36
2023-03-26T22:22:16.282Z,8.42
2023-03-26T22:24:43.365Z,8.50
2023-03-26T22:27:16.929Z,8.36
2023-03-26T22:29:43.474Z,8.28
2023-03-26T22:32:10.504Z,8.40
2023-03-26T22:34:38.089Z,8.45
2023-03-26T22:37:05.167Z,8.35
2023-03-26T22:39:42.989Z,8.21
2023-03-26T22:42:09.783Z,8.30
2023-03-26T22:44:36.610Z,8.32
2023-03-26T22:47:04.233Z,8.15
2023-03-26T22:49:31.765Z,8.18
2023-03-26T22:52:06.611Z,8.24
2023-03-26T22:54:35.881Z,8.08
2023-03-26T22:57:02.975Z,7.97
2023-03-26T22:59:30.503Z,8.05
2023-03-26T23:01:57.207Z,8.07
2023-03-26T23:04:31.237Z,7.93
2023-03-26T23:08:03.603Z,7.68
2023-03-26T23:10:31.529Z,7.98
2023-03-26T23:13:00.828Z,8.04
2023-03-26T23:15:30.581Z,8.06
2023-03-26T23:17:59.479Z,8.07
2023-03-26T23:20:29.291Z,8.08
2023-03-26T23:22:57.540Z,8.07
2023-03-26T23:25:32.961Z,7.92
2023-03-26T23:28:02.025Z,7.89
2023-03-26T23:30:30.443Z,8.01
2023-03-26T23:32:58.849Z,7.97
2023-03-26T23:35:26.848Z,7.79
2023-03-26T23:37:55.996Z,7.88
2023-03-26T23:40:24.569Z,7.90
2023-03-26T23:42:52.812Z,7.73
2023-03-26T23:45:22.724Z,7.72
2023-03-26T23:47:51.410Z,7.78
2023-03-26T23:50:20.887Z,7.55
2023-03-26T23:52:50.369Z,7.35
2023-03-26T23:55:18.283Z,7.45
2023-03-26T23:57:47.523Z,7.39
